sensor_id;sensor_type;location;lat;lon;timestamp;pressure;altitude;pressure_sealevel;temperature;humidity
17438;BME280;71884;52.198;5.422;2023-07-30T00:00:26;100739.69;;;26.60;44.22
17438;BME280;71884;52.198;5.422;2023-07-30T00:02:54;100731.88;;;26.52;44.00
17438;BME280;71884;52.198;5.422;2023-07-30T00:05:23;100740.00;;;26.29;44.32
17438;BME280;71884;52.198;5.422;2023-07-30T00:07:53;100738.00;;;26.36;44.16
17438;BME280;71884;52.198;5.422;2023-07-30T00:10:24;100736.34;;;26.58;44.18
17438;BME280;71884;52.198;5.422;2023-07-30T00:12:53;100740.97;;;26.34;43.92
17438;BME280;71884;52.198;5.422;2023-07-30T00:15:22;100743.91;;;26.56;43.95
17438;BME280;71884;52.198;5.422;2023-07-30T00:17:51;100752.44;;;26.48;44.09
17438;BME280;71884;52.198;5.422;2023-07-30T00:20:20;100743.47;;;26.59;44.24
17438;BME280;71884;52.198;5.422;2023-07-30T00:22:49;100752.44;;;26.48;44.10
17438;BME280;71884;52.198;5.422;2023-07-30T00:25:18;100743.00;;;26.62;43.94
17438;BME280;71884;52.198;5.422;2023-07-30T00:27:50;100752.44;;;26.48;44.06
17438;BME280;71884;52.198;5.422;2023-07-30T00:30:19;100752.06;;;26.44;44.39
17438;BME280;71884;52.198;5.422;2023-07-30T00:32:48;100751.59;;;26.59;43.75
17438;BME280;71884;52.198;5.422;2023-07-30T00:35:17;100746.75;;;26.61;43.82
17438;BME280;71884;52.198;5.422;2023-07-30T00:37:46;100745.13;;;26.60;44.05
17438;BME280;71884;52.198;5.422;2023-07-30T00:40:15;100750.56;;;26.60;44.16
17438;BME280;71884;52.198;5.422;2023-07-30T00:42:44;100743.91;;;26.33;44.19
17438;BME280;71884;52.198;5.422;2023-07-30T00:45:15;100754.91;;;26.49;43.76
17438;BME280;71884;52.198;5.422;2023-07-30T00:47:45;100745.47;;;26.63;43.92
17438;BME280;71884;52.198;5.422;2023-07-30T00:50:16;100746.63;;;26.67;43.53
17438;BME280;71884;52.198;5.422;2023-07-30T00:52:45;100742.63;;;26.58;44.07
17438;BME280;71884;52.198;5.422;2023-07-30T00:55:15;100743.00;;;26.62;43.72
17438;BME280;71884;52.198;5.422;2023-07-30T00:57:45;100741.78;;;26.58;44.15
17438;BME280;71884;52.198;5.422;2023-07-30T01:00:17;100738.13;;;26.52;44.02
17438;BME280;71884;52.198;5.422;2023-07-30T01:02:48;100743.69;;;26.69;43.92
17438;BME280;71884;52.198;5.422;2023-07-30T01:05:17;100745.72;;;26.62;43.72
17438;BME280;71884;52.198;5.422;2023-07-30T01:07:46;100743.00;;;26.62;43.75
17438;BME280;71884;52.198;5.422;2023-07-30T01:10:15;100744.88;;;26.50;44.33
17438;BME280;71884;52.198;5.422;2023-07-30T01:12:46;100751.72;;;26.64;43.97
17438;BME280;71884;52.198;5.422;2023-07-30T01:15:18;100754.31;;;26.59;44.04
17438;BME280;71884;52.198;5.422;2023-07-30T01:17:47;100760.34;;;26.49;43.97
17438;BME280;71884;52.198;5.422;2023-07-30T01:20:16;100761.53;;;26.53;43.89
17438;BME280;71884;52.198;5.422;2023-07-30T01:22:48;100764.25;;;26.65;44.09
17438;BME280;71884;52.198;5.422;2023-07-30T01:25:18;100756.22;;;26.47;44.31
17438;BME280;71884;52.198;5.422;2023-07-30T01:27:54;100757.63;;;26.61;43.93
17438;BME280;71884;52.198;5.422;2023-07-30T01:30:30;100762.34;;;26.54;43.83
17438;BME280;71884;52.198;5.422;2023-07-30T01:32:59;100768.16;;;26.46;43.95
17438;BME280;71884;52.198;5.422;2023-07-30T01:35:30;100770.63;;;26.47;44.07
17438;BME280;71884;52.198;5.422;2023-07-30T01:38:06;100768.28;;;26.62;43.76
17438;BME280;71884;52.198;5.422;2023-07-30T01:40:36;100767.66;;;26.49;44.23
17438;BME280;71884;52.198;5.422;2023-07-30T01:43:06;100765.06;;;26.31;44.65
17438;BME280;71884;52.198;5.422;2023-07-30T01:45:35;100773.00;;;26.55;43.92
17438;BME280;71884;52.198;5.422;2023-07-30T01:48:05;100763.06;;;26.61;44.01
17438;BME280;71884;52.198;5.422;2023-07-30T01:50:34;100759.28;;;26.39;44.33
17438;BME280;71884;52.198;5.422;2023-07-30T01:53:05;100758.00;;;26.41;44.26
17438;BME280;71884;52.198;5.422;2023-07-30T01:55:34;100761.25;;;26.20;44.76
17438;BME280;71884;52.198;5.422;2023-07-30T01:58:05;100759.16;;;25.92;45.39
17438;BME280;71884;52.198;5.422;2023-07-30T02:00:35;100762.00;;;26.27;44.82
17438;BME280;71884;52.198;5.422;2023-07-30T02:03:04;100759.59;;;26.19;44.72
17438;BME280;71884;52.198;5.422;2023-07-30T02:05:33;100763.50;;;26.35;44.61
17438;BME280;71884;52.198;5.422;2023-07-30T02:08:05;100768.50;;;26.38;44.75
17438;BME280;71884;52.198;5.422;2023-07-30T02:10:34;100768.25;;;26.39;44.64
17438;BME280;71884;52.198;5.422;2023-07-30T02:13:03;100763.06;;;26.49;44.24
17438;BME280;71884;52.198;5.422;2023-07-30T02:15:32;100766.88;;;26.60;44.45
17438;BME280;71884;52.198;5.422;2023-07-30T02:18:01;100763.53;;;26.46;44.79
17438;BME280;71884;52.198;5.422;2023-07-30T02:20:30;100770.16;;;26.39;44.77
17438;BME280;71884;52.198;5.422;2023-07-30T02:22:58;100760.19;;;26.21;45.07
17438;BME280;71884;52.198;5.422;2023-07-30T02:25:30;100763.16;;;26.19;44.85
17438;BME280;71884;52.198;5.422;2023-07-30T02:28:00;100768.72;;;26.36;44.96
17438;BME280;71884;52.198;5.422;2023-07-30T02:30:29;100763.75;;;26.33;44.73
17438;BME280;71884;52.198;5.422;2023-07-30T02:32:58;100764.47;;;26.29;45.20
17438;BME280;71884;52.198;5.422;2023-07-30T02:35:27;100768.88;;;26.41;44.89
17438;BME280;71884;52.198;5.422;2023-07-30T02:37:56;100767.31;;;26.34;44.90
17438;BME280;71884;52.198;5.422;2023-07-30T02:40:25;100758.31;;;26.33;45.20
17438;BME280;71884;52.198;5.422;2023-07-30T02:42:57;100759.06;;;26.52;44.62
17438;BME280;71884;52.198;5.422;2023-07-30T02:45:26;100755.16;;;26.59;44.58
17438;BME280;71884;52.198;5.422;2023-07-30T02:47:55;100751.72;;;26.41;44.63
17438;BME280;71884;52.198;5.422;2023-07-30T02:50:24;100752.91;;;26.45;44.86
17438;BME280;71884;52.198;5.422;2023-07-30T02:52:53;100748.88;;;26.59;44.62
17438;BME280;71884;52.198;5.422;2023-07-30T02:55:22;100752.56;;;26.53;44.56
17438;BME280;71884;52.198;5.422;2023-07-30T02:57:51;100736.72;;;26.38;44.57
17438;BME280;71884;52.198;5.422;2023-07-30T03:00:22;100749.19;;;26.28;45.36
17438;BME280;71884;52.198;5.422;2023-07-30T03:02:51;100750.31;;;26.50;45.06
17438;BME280;71884;52.198;5.422;2023-07-30T03:05:20;100756.00;;;26.60;44.87
17438;BME280;71884;52.198;5.422;2023-07-30T03:07:49;100760.94;;;26.51;44.96
17438;BME280;71884;52.198;5.422;2023-07-30T03:10:18;100752.56;;;26.41;45.15
17438;BME280;71884;52.198;5.422;2023-07-30T03:12:47;100758.22;;;26.51;44.99
17438;BME280;71884;52.198;5.422;2023-07-30T03:15:16;100756.06;;;26.42;45.35
17438;BME280;71884;52.198;5.422;2023-07-30T03:17:48;100756.69;;;26.44;45.14
17438;BME280;71884;52.198;5.422;2023-07-30T03:20:17;100761.06;;;26.56;44.99
17438;BME280;71884;52.198;5.422;2023-07-30T03:22:46;100760.59;;;26.59;44.88
17438;BME280;71884;52.198;5.422;2023-07-30T03:25:15;100758.09;;;26.58;44.87
17438;BME280;71884;52.198;5.422;2023-07-30T03:27:44;100758.91;;;26.35;45.57
17438;BME280;71884;52.198;5.422;2023-07-30T03:30:13;100760.34;;;26.49;44.92
17438;BME280;71884;52.198;5.422;2023-07-30T03:32:42;100756.31;;;26.29;45.49
17438;BME280;71884;52.198;5.422;2023-07-30T03:35:14;100764.16;;;26.48;44.91
17438;BME280;71884;52.198;5.422;2023-07-30T03:37:43;100768.50;;;26.49;45.32
17438;BME280;71884;52.198;5.422;2023-07-30T03:40:12;100762.03;;;26.62;45.09
17438;BME280;71884;52.198;5.422;2023-07-30T03:42:41;100767.34;;;26.57;45.02
17438;BME280;71884;52.198;5.422;2023-07-30T03:45:10;100768.94;;;26.35;45.44
17438;BME280;71884;52.198;5.422;2023-07-30T03:47:39;100774.38;;;26.35;45.67
17438;BME280;71884;52.198;5.422;2023-07-30T03:50:09;100772.75;;;26.45;45.38
17438;BME280;71884;52.198;5.422;2023-07-30T03:52:41;100772.41;;;26.53;45.42
17438;BME280;71884;52.198;5.422;2023-07-30T03:55:10;100773.34;;;26.59;45.07
17438;BME280;71884;52.198;5.422;2023-07-30T03:57:39;100772.31;;;26.48;45.05
17438;BME280;71884;52.198;5.422;2023-07-30T04:00:09;100776.53;;;26.56;45.31
17438;BME280;71884;52.198;5.422;2023-07-30T04:02:38;100775.72;;;26.44;45.48
17438;BME280;71884;52.198;5.422;2023-07-30T04:05:07;100771.59;;;26.53;45.32
17438;BME280;71884;52.198;5.422;2023-07-30T04:07:36;100766.72;;;26.43;45.40
17438;BME280;71884;52.198;5.422;2023-07-30T04:10:09;100767.34;;;26.57;45.27
17438;BME280;71884;52.198;5.422;2023-07-30T04:12:38;100765.44;;;26.46;45.54
17438;BME280;71884;52.198;5.422;2023-07-30T04:15:08;100766.84;;;26.37;45.58
17438;BME280;71884;52.198;5.422;2023-07-30T04:17:38;100771.66;;;26.35;45.69
17438;BME280;71884;52.198;5.422;2023-07-30T04:20:08;100769.06;;;26.28;45.96
17438;BME280;71884;52.198;5.422;2023-07-30T04:22:38;100771.41;;;26.13;46.21
17438;BME280;71884;52.198;5.422;2023-07-30T04:25:10;100768.00;;;26.29;46.01
17438;BME280;71884;52.198;5.422;2023-07-30T04:27:39;100775.19;;;26.24;46.22
17438;BME280;71884;52.198;5.422;2023-07-30T04:30:10;100772.84;;;26.27;46.31
17438;BME280;71884;52.198;5.422;2023-07-30T04:32:39;100777.34;;;26.33;45.98
17438;BME280;71884;52.198;5.422;2023-07-30T04:35:08;100778.19;;;26.34;46.11
17438;BME280;71884;52.198;5.422;2023-07-30T04:37:37;100779.34;;;26.38;46.04
17438;BME280;71884;52.198;5.422;2023-07-30T04:40:11;100778.53;;;26.49;45.60
17438;BME280;71884;52.198;5.422;2023-07-30T04:42:40;100789.75;;;26.29;46.16
17438;BME280;71884;52.198;5.422;2023-07-30T04:45:09;100785.75;;;26.32;46.01
17438;BME280;71884;52.198;5.422;2023-07-30T04:47:38;100792.81;;;26.33;46.21
17438;BME280;71884;52.198;5.422;2023-07-30T04:50:08;100789.78;;;26.41;46.19
17438;BME280;71884;52.198;5.422;2023-07-30T04:52:39;100786.31;;;26.34;46.29
17438;BME280;71884;52.198;5.422;2023-07-30T04:55:10;100787.63;;;26.43;46.20
17438;BME280;71884;52.198;5.422;2023-07-30T04:57:39;100794.47;;;26.34;46.06
17438;BME280;71884;52.198;5.422;2023-07-30T05:00:10;100797.19;;;26.34;46.21
17438;BME280;71884;52.198;5.422;2023-07-30T05:02:39;100792.72;;;26.51;45.99
17438;BME280;71884;52.198;5.422;2023-07-30T05:05:08;100801.84;;;26.56;45.88
17438;BME280;71884;52.198;5.422;2023-07-30T05:07:37;100792.25;;;26.54;45.92
17438;BME280;71884;52.198;5.422;2023-07-30T05:10:10;100799.28;;;26.20;46.53
17438;BME280;71884;52.198;5.422;2023-07-30T05:12:39;100788.22;;;26.33;46.50
17438;BME280;71884;52.198;5.422;2023-07-30T05:15:09;100798.06;;;26.46;46.22
17438;BME280;71884;52.198;5.422;2023-07-30T05:17:38;100804.53;;;26.45;46.27
17438;BME280;71884;52.198;5.422;2023-07-30T05:20:10;100800.78;;;26.57;46.01
17438;BME280;71884;52.198;5.422;2023-07-30T05:22:40;100807.13;;;26.40;46.19
17438;BME280;71884;52.198;5.422;2023-07-30T05:25:11;100798.56;;;26.13;46.96
17438;BME280;71884;52.198;5.422;2023-07-30T05:27:40;100798.91;;;26.16;46.85
17438;BME280;71884;52.198;5.422;2023-07-30T05:30:10;100799.47;;;26.37;46.43
17438;BME280;71884;52.198;5.422;2023-07-30T05:32:40;100796.59;;;26.32;46.39
17438;BME280;71884;52.198;5.422;2023-07-30T05:35:09;100803.50;;;26.46;46.34
17438;BME280;71884;52.198;5.422;2023-07-30T05:37:38;100800.06;;;26.50;46.34
17438;BME280;71884;52.198;5.422;2023-07-30T05:40:10;100806.31;;;26.51;46.52
17438;BME280;71884;52.198;5.422;2023-07-30T05:42:39;100806.22;;;26.46;46.52
17438;BME280;71884;52.198;5.422;2023-07-30T05:45:10;100805.25;;;26.40;46.45
17438;BME280;71884;52.198;5.422;2023-07-30T05:47:39;100808.78;;;26.41;46.58
17438;BME280;71884;52.198;5.422;2023-07-30T05:50:09;100810.56;;;26.47;46.76
17438;BME280;71884;52.198;5.422;2023-07-30T05:52:38;100810.69;;;26.40;47.04
17438;BME280;71884;52.198;5.422;2023-07-30T05:55:11;100810.69;;;26.52;46.32
17438;BME280;71884;52.198;5.422;2023-07-30T05:57:39;100807.41;;;26.61;46.24
17438;BME280;71884;52.198;5.422;2023-07-30T06:00:10;100802.28;;;26.42;47.06
17438;BME280;71884;52.198;5.422;2023-07-30T06:02:39;100809.28;;;26.61;46.49
17438;BME280;71884;52.198;5.422;2023-07-30T06:05:08;100802.66;;;26.45;46.68
17438;BME280;71884;52.198;5.422;2023-07-30T06:07:37;100808.09;;;26.57;46.44
17438;BME280;71884;52.198;5.422;2023-07-30T06:10:08;100816.50;;;26.44;47.12
17438;BME280;71884;52.198;5.422;2023-07-30T06:12:39;100814.44;;;26.39;46.92
17438;BME280;71884;52.198;5.422;2023-07-30T06:15:09;100794.69;;;26.21;47.14
17438;BME280;71884;52.198;5.422;2023-07-30T06:17:38;100810.53;;;26.35;47.04
17438;BME280;71884;52.198;5.422;2023-07-30T06:20:09;100814.09;;;26.36;46.89
17438;BME280;71884;52.198;5.422;2023-07-30T06:22:38;100808.78;;;26.29;47.36
17438;BME280;71884;52.198;5.422;2023-07-30T06:25:07;100812.97;;;26.13;47.56
17438;BME280;71884;52.198;5.422;2023-07-30T06:27:39;100815.03;;;26.30;47.06
17438;BME280;71884;52.198;5.422;2023-07-30T06:30:10;100816.91;;;26.29;47.28
17438;BME280;71884;52.198;5.422;2023-07-30T06:32:39;100807.78;;;26.24;47.38
17438;BME280;71884;52.198;5.422;2023-07-30T06:35:09;100818.78;;;25.99;48.10
17438;BME280;71884;52.198;5.422;2023-07-30T06:37:37;100812.09;;;26.01;47.71
17438;BME280;71884;52.198;5.422;2023-07-30T06:40:08;100816.50;;;26.14;47.75
17438;BME280;71884;52.198;5.422;2023-07-30T06:42:39;100812.38;;;25.93;48.30
17438;BME280;71884;52.198;5.422;2023-07-30T06:45:09;100810.41;;;26.00;48.16
17438;BME280;71884;52.198;5.422;2023-07-30T06:47:38;100804.53;;;26.03;47.94
17438;BME280;71884;52.198;5.422;2023-07-30T06:50:07;100804.38;;;25.98;47.99
17438;BME280;71884;52.198;5.422;2023-07-30T06:52:37;100801.50;;;26.11;47.42
17438;BME280;71884;52.198;5.422;2023-07-30T06:55:07;100803.94;;;26.31;47.20
17438;BME280;71884;52.198;5.422;2023-07-30T06:57:39;100800.47;;;26.24;47.26
17438;BME280;71884;52.198;5.422;2023-07-30T07:00:09;100805.66;;;26.26;47.06
17438;BME280;71884;52.198;5.422;2023-07-30T07:02:38;100811.94;;;26.26;47.20
17438;BME280;71884;52.198;5.422;2023-07-30T07:05:08;100818.22;;;26.27;47.13
17438;BME280;71884;52.198;5.422;2023-07-30T07:07:37;100825.41;;;26.03;47.56
17438;BME280;71884;52.198;5.422;2023-07-30T07:10:07;100817.72;;;25.70;48.13
17438;BME280;71884;52.198;5.422;2023-07-30T07:12:39;100818.88;;;26.10;47.50
17438;BME280;71884;52.198;5.422;2023-07-30T07:15:08;100822.47;;;26.04;47.76
17438;BME280;71884;52.198;5.422;2023-07-30T07:17:37;100820.50;;;26.11;47.37
17438;BME280;71884;52.198;5.422;2023-07-30T07:20:07;100823.06;;;26.25;47.24
17438;BME280;71884;52.198;5.422;2023-07-30T07:22:37;100823.06;;;26.25;47.32
17438;BME280;71884;52.198;5.422;2023-07-30T07:25:07;100819.47;;;26.12;47.28
17438;BME280;71884;52.198;5.422;2023-07-30T07:27:39;100800.09;;;25.61;48.17
17438;BME280;71884;52.198;5.422;2023-07-30T07:30:10;100817.72;;;25.34;48.97
17438;BME280;71884;52.198;5.422;2023-07-30T07:32:39;100822.34;;;25.51;48.97
17438;BME280;71884;52.198;5.422;2023-07-30T07:35:08;100817.44;;;25.60;48.68
17438;BME280;71884;52.198;5.422;2023-07-30T07:37:37;100807.81;;;25.46;48.67
17438;BME280;71884;52.198;5.422;2023-07-30T07:40:08;100813.50;;;25.56;48.74
17438;BME280;71884;52.198;5.422;2023-07-30T07:42:40;100815.47;;;25.31;48.76
17438;BME280;71884;52.198;5.422;2023-07-30T07:45:10;100827.28;;;25.73;48.20
17438;BME280;71884;52.198;5.422;2023-07-30T07:47:39;100819.38;;;25.71;48.44
17438;BME280;71884;52.198;5.422;2023-07-30T07:50:09;100826.59;;;25.77;47.88
17438;BME280;71884;52.198;5.422;2023-07-30T07:52:38;100822.03;;;25.60;48.34
17438;BME280;71884;52.198;5.422;2023-07-30T07:55:07;100824.50;;;25.43;48.73
17438;BME280;71884;52.198;5.422;2023-07-30T07:57:37;100837.06;;;25.62;48.43
17438;BME280;71884;52.198;5.422;2023-07-30T08:00:10;100837.78;;;25.51;48.60
17438;BME280;71884;52.198;5.422;2023-07-30T08:02:39;100833.81;;;25.72;48.02
17438;BME280;71884;52.198;5.422;2023-07-30T08:05:08;100834.16;;;25.39;48.81
17438;BME280;71884;52.198;5.422;2023-07-30T08:07:37;100828.34;;;25.35;48.63
17438;BME280;71884;52.198;5.422;2023-07-30T08:10:07;100826.63;;;25.59;48.12
17438;BME280;71884;52.198;5.422;2023-07-30T08:12:37;100830.19;;;25.60;47.82
17438;BME280;71884;52.198;5.422;2023-07-30T08:15:09;100835.19;;;25.38;48.13
17438;BME280;71884;52.198;5.422;2023-07-30T08:17:38;100827.00;;;25.44;48.43
17438;BME280;71884;52.198;5.422;2023-07-30T08:20:08;100824.94;;;25.40;48.67
17438;BME280;71884;52.198;5.422;2023-07-30T08:22:37;100823.91;;;25.41;48.39
17438;BME280;71884;52.198;5.422;2023-07-30T08:25:07;100820.69;;;25.50;48.19
17438;BME280;71884;52.198;5.422;2023-07-30T08:27:36;100831.22;;;25.22;49.32
17438;BME280;71884;52.198;5.422;2023-07-30T08:30:10;100827.69;;;25.76;49.37
17438;BME280;71884;52.198;5.422;2023-07-30T08:32:39;100831.25;;;25.88;49.78
17438;BME280;71884;52.198;5.422;2023-07-30T08:35:09;100838.44;;;25.83;50.55
17438;BME280;71884;52.198;5.422;2023-07-30T08:37:39;100839.25;;;26.01;49.78
17438;BME280;71884;52.198;5.422;2023-07-30T08:40:10;100836.84;;;25.93;50.35
17438;BME280;71884;52.198;5.422;2023-07-30T08:42:39;100837.13;;;26.03;49.94
17438;BME280;71884;52.198;5.422;2023-07-30T08:45:11;100845.63;;;26.25;49.94
17438;BME280;71884;52.198;5.422;2023-07-30T08:47:40;100839.84;;;26.33;49.79
17438;BME280;71884;52.198;5.422;2023-07-30T08:50:10;100847.66;;;26.30;50.14
17438;BME280;71884;52.198;5.422;2023-07-30T08:52:39;100838.44;;;26.42;49.41
17438;BME280;71884;52.198;5.422;2023-07-30T08:55:10;100840.94;;;26.44;49.50
17438;BME280;71884;52.198;5.422;2023-07-30T08:57:41;100839.06;;;26.56;49.32
17438;BME280;71884;52.198;5.422;2023-07-30T09:00:19;100838.72;;;26.64;48.74
17438;BME280;71884;52.198;5.422;2023-07-30T09:02:54;100837.19;;;26.68;48.79
17438;BME280;71884;52.198;5.422;2023-07-30T09:05:23;100847.59;;;26.71;48.54
17438;BME280;71884;52.198;5.422;2023-07-30T09:07:54;100844.22;;;26.75;48.46
17438;BME280;71884;52.198;5.422;2023-07-30T09:10:23;100828.03;;;26.39;49.10
17438;BME280;71884;52.198;5.422;2023-07-30T09:12:55;100832.78;;;25.84;49.45
17438;BME280;71884;52.198;5.422;2023-07-30T09:15:36;100835.19;;;25.74;49.02
17438;BME280;71884;52.198;5.422;2023-07-30T09:18:06;100830.53;;;25.63;48.94
17438;BME280;71884;52.198;5.422;2023-07-30T09:20:39;100840.78;;;25.25;49.62
17438;BME280;71884;52.198;5.422;2023-07-30T09:23:10;100836.56;;;24.86;49.93
17438;BME280;71884;52.198;5.422;2023-07-30T09:25:39;100846.75;;;25.33;49.45
17438;BME280;71884;52.198;5.422;2023-07-30T09:28:10;100858.34;;;24.98;49.45
17438;BME280;71884;52.198;5.422;2023-07-30T09:30:42;100847.38;;;24.93;49.36
17438;BME280;71884;52.198;5.422;2023-07-30T09:33:18;100857.91;;;25.01;49.10
17438;BME280;71884;52.198;5.422;2023-07-30T09:35:48;100856.06;;;24.70;49.57
17438;BME280;71884;52.198;5.422;2023-07-30T09:38:19;100860.44;;;24.71;50.07
17438;BME280;71884;52.198;5.422;2023-07-30T09:40:50;100866.25;;;24.74;49.60
17438;BME280;71884;52.198;5.422;2023-07-30T09:43:19;100873.81;;;24.66;49.85
17438;BME280;71884;52.198;5.422;2023-07-30T09:45:50;100865.97;;;24.27;50.50
17438;BME280;71884;52.198;5.422;2023-07-30T09:48:19;100872.53;;;24.44;50.32
17438;BME280;71884;52.198;5.422;2023-07-30T09:50:49;100874.47;;;24.30;50.52
17438;BME280;71884;52.198;5.422;2023-07-30T09:53:20;100878.34;;;24.78;49.78
17438;BME280;71884;52.198;5.422;2023-07-30T09:55:49;100885.69;;;24.71;49.34
17438;BME280;71884;52.198;5.422;2023-07-30T09:58:18;100879.78;;;24.74;49.85
17438;BME280;71884;52.198;5.422;2023-07-30T10:00:50;100891.13;;;24.65;50.01
17438;BME280;71884;52.198;5.422;2023-07-30T10:03:20;100898.13;;;24.86;49.55
17438;BME280;71884;52.198;5.422;2023-07-30T10:05:55;100893.13;;;24.82;49.25
17438;BME280;71884;52.198;5.422;2023-07-30T10:08:29;100888.91;;;24.87;49.20
17438;BME280;71884;52.198;5.422;2023-07-30T10:11:03;100890.75;;;25.35;48.34
17438;BME280;71884;52.198;5.422;2023-07-30T10:13:34;100900.63;;;25.30;48.12
17438;BME280;71884;52.198;5.422;2023-07-30T10:16:10;100911.47;;;25.30;48.13
17438;BME280;71884;52.198;5.422;2023-07-30T10:18:40;100901.28;;;25.50;47.77
17438;BME280;71884;52.198;5.422;2023-07-30T10:21:11;100902.72;;;25.71;47.52
17438;BME280;71884;52.198;5.422;2023-07-30T10:23:59;100909.94;;;25.59;47.50
17438;BME280;71884;52.198;5.422;2023-07-30T10:26:30;100900.59;;;25.55;47.37
17438;BME280;71884;52.198;5.422;2023-07-30T10:29:16;100903.81;;;25.81;46.73
17438;BME280;71884;52.198;5.422;2023-07-30T10:31:53;100905.31;;;25.95;46.18
17438;BME280;71884;52.198;5.422;2023-07-30T10:34:27;100900.63;;;26.02;46.20
17438;BME280;71884;52.198;5.422;2023-07-30T10:37:17;100908.94;;;26.07;45.29
17438;BME280;71884;52.198;5.422;2023-07-30T10:39:48;100912.97;;;25.87;45.38
17438;BME280;71884;52.198;5.422;2023-07-30T10:42:18;100902.00;;;25.93;45.05
17438;BME280;71884;52.198;5.422;2023-07-30T10:44:47;100901.34;;;25.80;44.56
17438;BME280;71884;52.198;5.422;2023-07-30T10:47:18;100911.44;;;25.73;44.32
17438;BME280;71884;52.198;5.422;2023-07-30T10:49:47;100916.78;;;25.79;44.15
17438;BME280;71884;52.198;5.422;2023-07-30T10:52:18;100916.34;;;25.82;44.17
17438;BME280;71884;52.198;5.422;2023-07-30T10:54:47;100915.88;;;26.03;43.63
17438;BME280;71884;52.198;5.422;2023-07-30T10:57:16;100921.41;;;25.79;43.88
17438;BME280;71884;52.198;5.422;2023-07-30T10:59:46;100923.53;;;25.95;44.06
17438;BME280;71884;52.198;5.422;2023-07-30T11:02:18;100921.25;;;25.92;43.77
17438;BME280;71884;52.198;5.422;2023-07-30T11:04:47;100929.03;;;26.06;43.81
17438;BME280;71884;52.198;5.422;2023-07-30T11:07:18;100931.06;;;25.32;43.76
17438;BME280;71884;52.198;5.422;2023-07-30T11:09:59;100928.34;;;25.57;43.81
17438;BME280;71884;52.198;5.422;2023-07-30T11:12:29;100938.38;;;25.74;43.39
17438;BME280;71884;52.198;5.422;2023-07-30T11:15:02;100922.16;;;25.68;43.48
17438;BME280;71884;52.198;5.422;2023-07-30T11:17:34;100932.47;;;25.95;42.80
17438;BME280;71884;52.198;5.422;2023-07-30T11:20:04;100935.28;;;25.89;42.96
17438;BME280;71884;52.198;5.422;2023-07-30T11:22:35;100933.16;;;25.91;42.89
17438;BME280;71884;52.198;5.422;2023-07-30T11:25:16;100938.91;;;25.83;42.94
17438;BME280;71884;52.198;5.422;2023-07-30T11:27:46;100942.75;;;25.75;43.01
17438;BME280;71884;52.198;5.422;2023-07-30T11:30:16;100934.16;;;25.78;43.43
17438;BME280;71884;52.198;5.422;2023-07-30T11:32:48;100942.91;;;25.98;42.92
17438;BME280;71884;52.198;5.422;2023-07-30T11:35:17;100956.91;;;25.77;43.06
17438;BME280;71884;52.198;5.422;2023-07-30T11:37:46;100950.00;;;25.99;42.99
17438;BME280;71884;52.198;5.422;2023-07-30T11:40:16;100957.47;;;26.04;43.18
17438;BME280;71884;52.198;5.422;2023-07-30T11:42:45;100948.91;;;26.00;43.57
17438;BME280;71884;52.198;5.422;2023-07-30T11:45:18;100955.34;;;26.06;43.26
17438;BME280;71884;52.198;5.422;2023-07-30T11:47:50;100947.78;;;26.08;43.34
17438;BME280;71884;52.198;5.422;2023-07-30T11:50:20;100941.53;;;26.07;43.24
17438;BME280;71884;52.198;5.422;2023-07-30T11:52:53;100950.19;;;25.98;43.30
17438;BME280;71884;52.198;5.422;2023-07-30T11:55:23;100956.78;;;26.08;42.98
17438;BME280;71884;52.198;5.422;2023-07-30T11:57:52;100939.03;;;26.24;43.09
17438;BME280;71884;52.198;5.422;2023-07-30T12:00:21;100951.06;;;25.80;43.09
17438;BME280;71884;52.198;5.422;2023-07-30T12:02:53;100949.22;;;25.74;43.41
17438;BME280;71884;52.198;5.422;2023-07-30T12:05:32;100956.75;;;25.72;43.06
17438;BME280;71884;52.198;5.422;2023-07-30T12:08:02;100959.88;;;25.76;43.44
17438;BME280;71884;52.198;5.422;2023-07-30T12:10:42;100972.78;;;25.80;43.30
17438;BME280;71884;52.198;5.422;2023-07-30T12:13:15;100973.81;;;25.97;43.41
17438;BME280;71884;52.198;5.422;2023-07-30T12:15:51;100951.63;;;26.00;43.24
17438;BME280;71884;52.198;5.422;2023-07-30T12:18:24;100964.09;;;25.90;43.19
17438;BME280;71884;52.198;5.422;2023-07-30T12:20:55;100967.34;;;25.80;43.63
17438;BME280;71884;52.198;5.422;2023-07-30T12:23:25;100972.16;;;25.96;43.47
17438;BME280;71884;52.198;5.422;2023-07-30T12:25:54;100964.94;;;26.08;43.25
17438;BME280;71884;52.198;5.422;2023-07-30T12:28:23;100961.56;;;26.13;42.94
17438;BME280;71884;52.198;5.422;2023-07-30T12:30:52;100967.19;;;26.11;43.46
17438;BME280;71884;52.198;5.422;2023-07-30T12:33:23;100957.91;;;26.01;43.72
17438;BME280;71884;52.198;5.422;2023-07-30T12:35:53;100962.50;;;26.00;43.38
17438;BME280;71884;52.198;5.422;2023-07-30T12:38:22;100970.88;;;25.99;42.95
17438;BME280;71884;52.198;5.422;2023-07-30T12:40:51;100970.06;;;25.62;43.43
17438;BME280;71884;52.198;5.422;2023-07-30T12:43:20;100974.38;;;25.88;43.01
17438;BME280;71884;52.198;5.422;2023-07-30T12:45:49;100966.16;;;25.76;43.19
17438;BME280;71884;52.198;5.422;2023-07-30T12:48:18;100974.13;;;25.71;42.36
17438;BME280;71884;52.198;5.422;2023-07-30T12:50:50;100972.59;;;25.57;42.96
17438;BME280;71884;52.198;5.422;2023-07-30T12:53:19;100981.59;;;25.76;42.72
17438;BME280;71884;52.198;5.422;2023-07-30T12:55:48;100975.94;;;25.77;43.45
17438;BME280;71884;52.198;5.422;2023-07-30T12:58:17;100978.19;;;25.62;43.28
17438;BME280;71884;52.198;5.422;2023-07-30T13:00:46;100978.28;;;25.74;42.95
17438;BME280;71884;52.198;5.422;2023-07-30T13:03:15;100980.91;;;25.80;42.47
17438;BME280;71884;52.198;5.422;2023-07-30T13:05:44;100978.19;;;25.80;42.12